Time;durP1;ratioP1;P1;durP2;ratioP2;P2;SDS_P1;SDS_P2;PMS_P1;PMS_P2;Temp;Humidity;BMP_temperature;BMP_pressure;BME280_temperature;BME280_humidity;BME280_pressure;Samples;Min_cycle;Max_cycle;Signal;HPM_P1;HPM_P2
2022/12/18 00:02:15;;;;;;;10.80;5.40;;;;;;;-4.91;82.86;99375.39;102641;1297;74330;-22
2022/12/18 00:04:43;;;;;;;11.70;6.70;;;;;;;-4.64;81.77;99377.90;102529;1297;62056;-22
2022/12/18 00:07:09;;;;;;;13.30;7.10;;;;;;;-4.69;81.62;99385.09;102391;1299;61896;-22
2022/12/18 00:09:37;;;;;;;11.40;7.00;;;;;;;-4.74;81.86;99396.16;102627;1299;75405;-22
2022/12/18 00:12:07;;;;;;;7.90;4.80;;;;;;;-4.94;82.74;99391.85;102338;1302;75831;-23
2022/12/18 00:14:44;;;;;;;8.70;5.90;;;;;;;-5.09;83.11;99395.08;102502;1291;73203;-22
2022/12/18 00:17:12;;;;;;;12.40;6.40;;;;;;;-4.76;82.41;99399.91;102394;1299;61228;-22
2022/12/18 00:19:38;;;;;;;12.90;7.80;;;;;;;-4.50;81.09;99403.30;102323;1295;61170;-23
2022/12/18 00:22:06;;;;;;;8.10;5.60;;;;;;;-4.74;81.28;99406.66;102563;1289;74257;-22
2022/12/18 00:24:33;;;;;;;13.70;8.20;;;;;;;-4.96;81.35;99408.80;102682;1299;75592;-22
2022/12/18 00:27:00;;;;;;;13.20;7.60;;;;;;;-5.18;82.64;99416.17;102678;1297;74022;-22
2022/12/18 00:29:28;;;;;;;16.20;8.00;;;;;;;-5.37;83.73;99419.77;102664;1299;61045;-22
2022/12/18 00:31:55;;;;;;;12.60;7.20;;;;;;;-5.09;83.49;99434.86;102643;1299;61733;-22
2022/12/18 00:34:23;;;;;;;16.20;9.60;;;;;;;-4.74;82.04;99429.38;102695;1298;75458;-22
2022/12/18 00:36:52;;;;;;;17.80;7.80;;;;;;;-4.87;81.80;99429.52;102673;1299;74230;-22
2022/12/18 00:39:19;;;;;;;14.20;9.00;;;;;;;-4.83;81.46;99428.13;102646;1299;74268;-22
2022/12/18 00:44:32;;;;;;;18.70;9.50;;;;;;;-5.36;84.14;99437.20;102450;1290;61736;-22
2022/12/18 00:46:59;;;;;;;14.60;9.60;;;;;;;-5.26;84.06;99443.86;102328;1289;75309;-22
2022/12/18 00:49:25;;;;;;;17.30;10.30;;;;;;;-4.85;82.60;99445.10;102267;1299;75836;-22
2022/12/18 00:51:55;;;;;;;11.90;8.20;;;;;;;-4.86;82.24;99451.02;102384;1297;73098;-22
2022/12/18 00:54:22;;;;;;;14.10;8.20;;;;;;;-5.08;82.25;99443.33;102132;1299;61378;-23
2022/12/18 00:56:50;;;;;;;12.80;7.10;;;;;;;-5.25;83.04;99444.52;102608;1297;61978;-22
2022/12/18 00:59:17;;;;;;;17.40;9.50;;;;;;;-5.25;82.73;99443.66;102506;1299;75429;-22
2022/12/18 01:01:45;;;;;;;13.90;8.90;;;;;;;-5.19;83.22;99450.89;102362;1291;75670;-23
2022/12/18 01:04:13;;;;;;;16.00;10.00;;;;;;;-4.84;81.79;99444.91;102056;1294;74266;-23
2022/12/18 01:06:40;;;;;;;10.00;6.60;;;;;;;-5.01;81.28;99440.88;102483;1299;61125;-23
2022/12/18 01:09:09;;;;;;;13.90;8.80;;;;;;;-4.76;80.86;99452.77;102606;1299;61832;-22
2022/12/18 01:11:36;;;;;;;17.10;9.20;;;;;;;-5.06;81.24;99443.64;102522;1291;75443;-23
2022/12/18 01:14:05;;;;;;;13.30;7.70;;;;;;;-5.47;82.39;99442.38;102329;1299;74028;-22
2022/12/18 01:16:33;;;;;;;15.40;9.80;;;;;;;-5.49;83.74;99450.00;102656;1297;74201;-22
2022/12/18 01:19:00;;;;;;;12.90;7.20;;;;;;;-5.14;82.85;99451.19;102618;1297;61039;-22
2022/12/18 01:21:27;;;;;;;11.90;7.20;;;;;;;-4.84;81.69;99461.84;102602;1297;61638;-22
2022/12/18 01:23:55;;;;;;;12.50;8.10;;;;;;;-4.81;81.31;99458.59;102594;1290;75419;-22
2022/12/18 01:26:24;;;;;;;15.60;9.40;;;;;;;-5.06;81.42;99444.83;102350;1294;74783;-22
2022/12/18 01:28:51;;;;;;;16.60;8.60;;;;;;;-5.41;82.62;99458.05;102030;1292;74201;-22
2022/12/18 01:31:27;;;;;;;13.00;8.50;;;;;;;-5.45;83.07;99460.30;102378;1292;61770;-22
2022/12/18 01:33:54;;;;;;;16.00;8.40;;;;;;;-5.16;82.81;99465.59;102268;1292;61157;-22
2022/12/18 01:36:24;;;;;;;13.80;8.80;;;;;;;-4.90;81.62;99467.16;102338;1291;75473;-22
2022/12/18 01:38:51;;;;;;;12.20;6.40;;;;;;;-5.22;81.88;99471.73;102254;1299;76073;-22
2022/12/18 01:41:24;;;;;;;14.50;8.70;;;;;;;-5.28;82.20;99466.05;102609;1296;74249;-22
2022/12/18 01:43:54;;;;;;;16.50;10.20;;;;;;;-5.59;83.44;99465.15;102408;1299;61250;-22
2022/12/18 01:46:25;;;;;;;15.40;8.40;;;;;;;-5.56;84.23;99471.40;102391;1295;61896;-22
2022/12/18 01:48:57;;;;;;;13.00;8.20;;;;;;;-5.29;83.05;99477.23;102316;1300;75278;-22
2022/12/18 01:51:25;;;;;;;16.00;8.40;;;;;;;-5.03;81.95;99488.14;102363;1299;75906;-22
2022/12/18 01:53:52;;;;;;;14.40;8.10;;;;;;;-5.17;81.97;99493.87;102085;1295;73168;-23
2022/12/18 01:56:19;;;;;;;15.50;9.10;;;;;;;-5.34;82.31;99494.55;102307;1292;61094;-22
2022/12/18 01:59:03;;;;;;;15.00;7.90;;;;;;;-5.60;83.19;99503.40;102419;1299;61750;-22
2022/12/18 02:01:30;;;;;;;12.00;6.80;;;;;;;-5.71;84.06;99505.17;102323;1298;75249;-22
2022/12/18 02:04:33;;;;;;;14.00;8.20;;;;;;;-5.56;83.50;99510.98;102457;1292;75777;-23
2022/12/18 02:07:24;;;;;;;13.10;7.10;;;;;;;-5.38;82.02;99515.06;102413;1299;74063;-22
2022/12/18 02:09:51;;;;;;;9.70;6.10;;;;;;;-5.41;81.43;99499.84;102363;1292;61122;-23
2022/12/18 02:12:19;;;;;;;13.30;7.90;;;;;;;-5.70;82.32;99510.08;102573;1295;61860;-23
2022/12/18 02:14:56;;;;;;;12.80;6.60;;;;;;;-5.74;82.87;99518.05;102282;1299;75294;-22
2022/12/18 02:17:44;;;;;;;13.40;6.50;;;;;;;-5.85;83.10;99504.44;102580;1297;76188;-22
2022/12/18 02:20:25;;;;;;;11.80;7.40;;;;;;;-5.62;82.66;99520.16;102601;1297;74040;-22
2022/12/18 02:23:08;;;;;;;8.60;4.80;;;;;;;-5.39;81.53;99527.09;102311;1299;61114;-22
2022/12/18 02:26:10;;;;;;;7.00;3.80;;;;;;;-5.43;81.61;99533.88;102673;1297;61809;-23
2022/12/18 02:29:08;;;;;;;17.10;8.60;;;;;;;-5.43;81.75;99537.61;102329;1291;75603;-22
2022/12/18 02:31:43;;;;;;;9.90;5.80;;;;;;;-5.75;82.27;99534.48;102316;1299;75793;-25
2022/12/18 02:34:11;;;;;;;11.50;6.30;;;;;;;-5.80;82.44;99538.05;102377;1297;72050;-23
2022/12/18 02:36:40;;;;;;;15.60;9.20;;;;;;;-5.55;81.83;99536.01;102342;1299;61053;-22
2022/12/18 02:39:08;;;;;;;11.30;6.60;;;;;;;-5.56;81.78;99545.83;102036;1279;61769;-23
2022/12/18 02:41:36;;;;;;;14.30;8.30;;;;;;;-5.66;81.74;99539.48;102298;1301;75286;-22
2022/12/18 02:44:12;;;;;;;14.40;7.30;;;;;;;-5.96;82.04;99551.35;102277;1294;75801;-23
2022/12/18 02:46:41;;;;;;;16.30;9.10;;;;;;;-6.00;82.91;99560.86;102353;1299;74289;-23
2022/12/18 02:49:37;;;;;;;11.90;6.70;;;;;;;-6.10;83.29;99562.77;102338;1291;63547;-22
2022/12/18 02:52:07;;;;;;;14.30;7.70;;;;;;;-5.61;82.29;99570.06;102394;1294;61898;-22
2022/12/18 02:54:54;;;;;;;14.90;7.90;;;;;;;-5.59;81.30;99579.17;102408;1299;75495;-23
2022/12/18 02:57:43;;;;;;;16.50;8.50;;;;;;;-5.91;81.98;99585.64;102505;1295;77429;-22
2022/12/18 03:00:18;;;;;;;16.30;8.30;;;;;;;-6.04;82.93;99584.39;102429;1291;74233;-22
2022/12/18 03:02:59;;;;;;;17.40;9.20;;;;;;;-6.13;83.18;99593.05;101146;1298;1478437;-22
2022/12/18 03:05:41;;;;;;;12.20;7.50;;;;;;;-6.06;83.06;99593.01;102274;1302;62073;-22
2022/12/18 03:08:15;;;;;;;14.90;7.60;;;;;;;-5.91;81.73;99588.02;102359;1298;73332;-23
2022/12/18 03:10:58;;;;;;;13.80;7.00;;;;;;;-6.01;82.15;99607.36;102399;1291;74913;-24
2022/12/18 03:13:47;;;;;;;12.90;6.30;;;;;;;-5.92;81.92;99609.68;102346;1294;74255;-24
2022/12/18 03:16:22;;;;;;;20.10;9.60;;;;;;;-6.15;82.52;99617.58;102431;1298;61138;-23
2022/12/18 03:19:07;;;;;;;14.60;7.90;;;;;;;-6.34;83.72;99628.30;102325;1299;61428;-22
2022/12/18 03:21:39;;;;;;;15.50;7.80;;;;;;;-5.99;82.66;99639.98;102461;1299;75287;-23
2022/12/18 03:24:07;;;;;;;11.30;7.20;;;;;;;-5.87;81.98;99643.62;102241;1302;74908;-23
2022/12/18 03:26:35;;;;;;;17.30;9.30;;;;;;;-5.83;81.41;99643.95;102406;1299;74174;-22
2022/12/18 03:29:06;;;;;;;15.00;7.50;;;;;;;-6.09;81.80;99636.83;102382;1291;61113;-23
2022/12/18 03:31:35;;;;;;;17.70;9.50;;;;;;;-6.26;82.33;99649.22;102041;1303;61111;-23
2022/12/18 03:34:13;;;;;;;18.20;7.90;;;;;;;-6.43;83.32;99644.04;102132;1299;75432;-23
2022/12/18 03:36:43;;;;;;;17.60;8.70;;;;;;;-6.15;82.55;99653.42;102255;1299;75752;-23
2022/12/18 03:39:10;;;;;;;20.30;10.70;;;;;;;-6.02;82.11;99654.02;102384;1299;74109;-23
2022/12/18 03:41:44;;;;;;;19.10;9.70;;;;;;;-6.21;81.84;99645.66;102493;1297;61084;-23
2022/12/18 03:44:56;;;;;;;22.20;11.50;;;;;;;-6.37;82.48;99651.63;102285;1294;61939;-23
2022/12/18 03:47:27;;;;;;;18.40;9.30;;;;;;;-6.47;82.89;99661.11;102699;1291;75529;-23
2022/12/18 03:50:21;;;;;;;20.60;10.10;;;;;;;-6.34;82.49;99657.88;102318;1292;75983;-23
2022/12/18 03:52:52;;;;;;;18.20;8.90;;;;;;;-6.16;81.76;99664.91;102318;1302;74093;-23
2022/12/18 03:55:19;;;;;;;16.80;8.50;;;;;;;-6.12;80.98;99661.69;102376;1291;61103;-23
2022/12/18 03:57:48;;;;;;;18.60;8.80;;;;;;;-6.28;81.88;99681.69;102385;1297;61602;-23
2022/12/18 04:00:16;;;;;;;19.80;9.90;;;;;;;-6.36;82.32;99676.46;102212;1299;75456;-23
2022/12/18 04:03:01;;;;;;;14.60;8.10;;;;;;;-6.61;82.79;99665.69;102314;1292;75622;-23
2022/12/18 04:05:33;;;;;;;18.00;8.50;;;;;;;-6.30;82.23;99686.58;102520;1289;74181;-23
2022/12/18 04:08:00;;;;;;;15.80;9.00;;;;;;;-6.07;81.13;99683.64;102347;1299;61143;-23
2022/12/18 04:10:28;;;;;;;19.70;8.30;;;;;;;-6.22;80.91;99697.39;102301;1300;61792;-23
2022/12/18 04:13:24;;;;;;;16.00;7.80;;;;;;;-6.26;81.54;99700.94;102341;1299;76383;-23
2022/12/18 04:15:52;;;;;;;12.30;7.10;;;;;;;-6.44;81.63;99710.95;102207;1301;75706;-23
2022/12/18 04:18:21;;;;;;;17.40;8.20;;;;;;;-6.54;81.82;99718.22;102659;1297;73051;-23
2022/12/18 04:20:48;;;;;;;16.50;8.50;;;;;;;-6.41;82.01;99723.43;102502;1297;63536;-23
2022/12/18 04:23:17;;;;;;;14.90;8.10;;;;;;;-6.10;80.41;99708.34;102344;1295;61903;-23
2022/12/18 04:25:44;;;;;;;16.50;9.80;;;;;;;-6.19;80.00;99710.55;102532;1291;75275;-24
2022/12/18 04:28:14;;;;;;;17.20;9.20;;;;;;;-6.24;80.51;99723.42;102603;1289;74689;-23
2022/12/18 04:30:42;;;;;;;16.00;7.90;;;;;;;-6.44;81.06;99729.70;102664;1299;74158;-23
2022/12/18 04:33:11;;;;;;;15.60;8.10;;;;;;;-6.53;81.56;99733.09;102643;1299;61979;-23
2022/12/18 04:35:39;;;;;;;16.30;8.40;;;;;;;-6.55;82.30;99743.91;102329;1300;61037;-23
2022/12/18 04:38:08;;;;;;;13.10;8.20;;;;;;;-6.08;81.63;99741.29;102198;1302;74875;-23
2022/12/18 04:40:35;;;;;;;13.80;7.80;;;;;;;-6.22;80.92;99728.65;102300;1299;75783;-23
2022/12/18 04:43:03;;;;;;;18.10;9.00;;;;;;;-6.28;81.43;99738.64;102244;1294;74159;-23
2022/12/18 04:45:31;;;;;;;17.80;10.60;;;;;;;-6.36;81.96;99736.61;102399;1298;61348;-23
2022/12/18 04:47:59;;;;;;;15.60;8.70;;;;;;;-6.48;81.60;99730.21;102147;1299;61729;-23
2022/12/18 04:50:26;;;;;;;12.60;7.10;;;;;;;-6.61;82.33;99735.80;102336;1299;75497;-23
2022/12/18 04:52:53;;;;;;;17.10;10.30;;;;;;;-6.34;81.91;99737.11;102696;1299;75860;-23
2022/12/18 04:55:20;;;;;;;13.10;7.20;;;;;;;-6.03;80.94;99750.08;102656;1298;74205;-23
2022/12/18 04:57:47;;;;;;;10.10;6.20;;;;;;;-6.01;80.55;99760.22;102503;1292;61062;-24
2022/12/18 05:00:15;;;;;;;13.40;6.90;;;;;;;-6.21;80.66;99755.02;102632;1295;61735;-23
2022/12/18 05:02:42;;;;;;;12.40;7.80;;;;;;;-6.52;82.00;99738.84;102649;1298;75415;-23
2022/12/18 05:05:09;;;;;;;13.50;7.40;;;;;;;-6.60;82.41;99759.62;102491;1295;75797;-23
2022/12/18 05:07:36;;;;;;;12.90;7.20;;;;;;;-6.44;82.59;99767.21;102434;1294;74277;-23
2022/12/18 05:10:07;;;;;;;19.30;10.50;;;;;;;-6.07;81.50;99768.52;102382;1291;61154;-24
2022/12/18 05:12:57;;;;;;;13.70;7.60;;;;;;;-6.15;81.54;99760.77;102204;1299;61078;-23
2022/12/18 05:15:21;;;;;;;15.60;8.10;;;;;;;-6.31;81.99;99784.27;102337;1287;73992;-23
2022/12/18 05:17:47;;;;;;;17.90;8.80;;;;;;;-6.32;82.82;99797.29;102517;1290;75607;-24
2022/12/18 05:20:15;;;;;;;11.00;7.10;;;;;;;-6.47;83.36;99798.98;102449;1295;74116;-23
2022/12/18 05:22:41;;;;;;;13.40;7.30;;;;;;;-6.20;82.64;99812.48;102462;1299;61092;-23
2022/12/18 05:25:09;;;;;;;13.90;7.10;;;;;;;-6.12;82.02;99812.97;102357;1299;61676;-23
2022/12/18 05:27:36;;;;;;;12.30;6.70;;;;;;;-6.19;81.33;99807.77;102474;1289;75622;-23
2022/12/18 05:30:04;;;;;;;13.70;6.60;;;;;;;-6.21;81.90;99820.77;102396;1299;74724;-23
2022/12/18 05:32:31;;;;;;;13.20;6.70;;;;;;;-6.25;82.37;99832.61;102335;1299;74117;-23
2022/12/18 05:34:58;;;;;;;9.20;6.60;;;;;;;-6.33;83.05;99829.23;102601;1295;61742;-24
2022/12/18 05:37:26;;;;;;;13.30;8.20;;;;;;;-6.37;83.60;99830.08;102345;1294;61751;-23
2022/12/18 05:39:53;;;;;;;8.90;5.80;;;;;;;-6.23;83.07;99830.77;102515;1299;75659;-23
2022/12/18 05:42:20;;;;;;;12.00;6.90;;;;;;;-6.06;82.89;99835.64;102557;1299;75747;-23
2022/12/18 05:44:47;;;;;;;14.20;8.70;;;;;;;-6.12;82.94;99849.17;102495;1299;74265;-23
2022/12/18 05:47:14;;;;;;;14.70;8.80;;;;;;;-6.41;83.92;99859.30;102661;1299;61587;-23
2022/12/18 05:49:41;;;;;;;15.90;8.60;;;;;;;-6.48;84.89;99863.19;102436;1299;61717;-24
2022/12/18 05:52:08;;;;;;;14.40;8.10;;;;;;;-6.32;84.87;99865.40;102380;1285;75573;-23
2022/12/18 05:54:35;;;;;;;15.40;8.70;;;;;;;-6.16;84.61;99869.11;102516;1288;75845;-23
2022/12/18 05:57:02;;;;;;;16.90;8.80;;;;;;;-6.11;84.58;99878.76;102367;1295;74112;-23
2022/12/18 05:59:30;;;;;;;12.70;7.00;;;;;;;-6.35;85.30;99886.36;102392;1294;61285;-23
2022/12/18 06:01:57;;;;;;;12.10;6.30;;;;;;;-6.44;85.78;99881.78;102464;1299;61933;-23
2022/12/18 06:04:24;;;;;;;18.80;8.10;;;;;;;-6.22;86.07;99881.13;102360;1299;75428;-23
2022/12/18 06:06:52;;;;;;;15.70;8.70;;;;;;;-6.16;84.89;99882.31;102286;1302;75877;-23
2022/12/18 06:09:19;;;;;;;17.40;8.80;;;;;;;-6.16;85.22;99897.68;102610;1299;74237;-23
2022/12/18 06:11:46;;;;;;;16.10;9.00;;;;;;;-6.40;85.83;99901.55;102633;1295;61080;-24
2022/12/18 06:21:49;;;;;;;12.20;7.60;;;;;;;-6.13;85.30;99929.46;99266;1335;599134;-23
2022/12/18 06:24:16;;;;;;;13.50;7.60;;;;;;;-6.35;85.72;99933.49;101374;1304;62079;-24
2022/12/18 06:26:43;;;;;;;9.90;6.20;;;;;;;-6.46;86.16;99928.25;101294;1311;62027;-23
2022/12/18 06:29:10;;;;;;;16.40;8.60;;;;;;;-6.25;85.98;99940.78;101261;1315;74574;-24
2022/12/18 06:31:37;;;;;;;16.20;8.70;;;;;;;-6.20;85.46;99935.04;102083;1305;75517;-24
2022/12/18 06:34:04;;;;;;;52.10;8.40;;;;;;;-6.23;85.83;99941.97;101931;1304;73187;-24
2022/12/18 06:36:31;;;;;;;14.20;6.70;;;;;;;-6.24;85.69;99947.55;101201;1298;1227057;-24
2022/12/18 06:38:58;;;;;;;15.80;8.20;;;;;;;-6.32;86.54;99954.80;102089;1303;62497;-24
2022/12/18 06:41:25;;;;;;;14.60;8.10;;;;;;;-6.21;86.33;99967.16;102128;1301;74492;-24
2022/12/18 06:43:52;;;;;;;10.50;6.30;;;;;;;-6.07;85.80;99964.98;102094;1302;76718;-24
2022/12/18 06:46:25;;;;;;;9.40;5.80;;;;;;;-6.13;85.81;99958.21;102102;1302;74100;-24
2022/12/18 06:48:52;;;;;;;11.90;7.20;;;;;;;-6.15;86.56;99984.24;102018;1297;62059;-24
2022/12/18 06:51:20;;;;;;;15.80;7.50;;;;;;;-6.24;86.54;99979.00;101886;1303;62612;-24
2022/12/18 06:53:47;;;;;;;12.50;6.80;;;;;;;-6.28;87.32;99971.54;101858;1295;75813;-23
2022/12/18 06:56:14;;;;;;;11.60;6.10;;;;;;;-5.85;86.03;99980.88;102069;1294;75757;-24
2022/12/18 06:58:41;;;;;;;14.20;7.20;;;;;;;-6.10;86.22;99990.50;101946;1296;75180;-24
2022/12/18 07:01:10;;;;;;;12.40;7.40;;;;;;;-6.15;86.75;99995.41;101888;1303;62359;-24
2022/12/18 07:03:41;;;;;;;12.40;6.20;;;;;;;-6.29;87.26;99985.91;101995;1295;61832;-24
2022/12/18 07:06:16;;;;;;;10.00;5.80;;;;;;;-6.01;87.48;100002.00;101926;1305;75235;-24
2022/12/18 07:08:44;;;;;;;12.70;6.80;;;;;;;-5.82;86.51;100014.54;101849;1306;76705;-24
2022/12/18 07:11:12;;;;;;;12.90;6.50;;;;;;;-5.73;86.13;100009.29;101902;1300;74523;-24
2022/12/18 07:13:39;;;;;;;13.60;7.70;;;;;;;-5.79;86.01;100018.09;102008;1300;61733;-24
2022/12/18 07:16:13;;;;;;;12.80;6.50;;;;;;;-5.93;87.11;100028.89;101981;1295;61521;-24
2022/12/18 07:18:49;;;;;;;;;;;;;;;-6.01;87.67;100030.92;101907;1305;75669;-24
2022/12/18 07:21:18;;;;;;;10.50;6.70;;;;;;;-5.69;87.16;100045.33;102001;1295;75564;-24
2022/12/18 07:23:47;;;;;;;12.30;8.10;;;;;;;-5.59;86.48;100046.52;101920;1299;74185;-24
2022/12/18 07:26:17;;;;;;;9.20;5.90;;;;;;;-5.68;86.65;100045.67;101977;1302;62325;-24
2022/12/18 07:28:44;;;;;;;13.20;7.50;;;;;;;-5.68;86.62;100061.41;101839;1306;62622;-24
2022/12/18 07:31:14;;;;;;;15.50;8.00;;;;;;;-5.74;87.03;100059.37;101944;1297;74502;-24
2022/12/18 07:33:41;;;;;;;11.60;6.90;;;;;;;-5.73;87.09;100053.95;101878;1302;75790;-25
2022/12/18 10:26:43;;;;;;;9.80;5.80;;;;;;;-6.42;90.00;100258.45;99586;1325;616743;-25
2022/12/18 10:29:11;;;;;;;13.50;6.40;;;;;;;-5.88;88.35;100256.91;101392;1311;61042;-23
2022/12/18 10:31:38;;;;;;;9.10;5.00;;;;;;;-5.45;86.03;100255.39;101314;1310;62038;-23
2022/12/18 10:34:10;;;;;;;12.20;5.70;;;;;;;-5.46;85.01;100252.86;101406;1312;74001;-23
2022/12/18 10:36:40;;;;;;;10.50;6.20;;;;;;;-5.44;84.93;100266.56;101427;1312;76035;-23
2022/12/18 10:39:19;;;;;;;10.70;5.80;;;;;;;-5.76;85.18;100255.44;100572;1312;1264442;-23
2022/12/18 10:41:46;;;;;;;11.30;6.20;;;;;;;-5.98;85.71;100248.91;101614;1307;61166;-23
2022/12/18 10:44:23;;;;;;;7.80;4.20;;;;;;;-5.82;85.87;100268.44;101584;1307;61635;-24
2022/12/18 10:46:55;;;;;;;10.40;5.00;;;;;;;-5.68;84.91;100272.56;101515;1312;72920;-23
2022/12/18 10:49:27;;;;;;;10.80;5.70;;;;;;;-5.62;84.48;100284.60;101825;1307;74923;-23
2022/12/18 10:52:05;;;;;;;7.00;4.30;;;;;;;-5.79;84.37;100270.65;101645;1308;73220;-23
2022/12/18 10:54:34;;;;;;;8.60;4.70;;;;;;;-5.96;84.71;100272.25;101790;1305;61285;-23
2022/12/18 10:57:29;;;;;;;10.10;6.10;;;;;;;-5.68;84.24;100283.73;101875;1306;61675;-23
2022/12/18 10:59:57;;;;;;;10.10;5.10;;;;;;;-5.56;82.91;100278.70;101506;1307;74620;-23
2022/12/18 11:02:43;;;;;;;7.90;4.80;;;;;;;-5.62;83.81;100295.10;101658;1305;74679;-23
2022/12/18 11:05:37;;;;;;;8.70;5.00;;;;;;;-5.73;84.29;100310.45;101657;1300;74170;-23
2022/12/18 11:08:04;;;;;;;12.10;6.60;;;;;;;-5.98;85.09;100282.89;101826;1304;62632;-23
2022/12/18 11:10:33;;;;;;;7.20;5.00;;;;;;;-5.69;85.04;100311.63;101871;1304;61829;-23
2022/12/18 11:13:36;;;;;;;8.80;4.60;;;;;;;-5.43;83.09;100303.31;101788;1306;73112;-23
2022/12/18 11:16:03;;;;;;;9.30;5.00;;;;;;;-5.55;83.61;100306.12;101213;1310;75829;-23
2022/12/18 11:18:34;;;;;;;12.30;6.50;;;;;;;-5.58;84.23;100303.58;101287;1312;74359;-23
2022/12/18 11:21:09;;;;;;;9.80;5.70;;;;;;;-5.78;84.88;100312.11;100771;1317;62606;-23
2022/12/18 11:23:37;;;;;;;9.80;4.90;;;;;;;-5.65;84.46;100323.50;100863;1315;61709;-24
2022/12/18 11:26:04;;;;;;;11.70;4.80;;;;;;;-5.29;83.22;100319.27;101177;1305;74722;-23
2022/12/18 11:28:43;;;;;;;12.00;6.10;;;;;;;-5.59;83.48;100327.27;101661;1308;75741;-23
2022/12/18 11:31:14;;;;;;;10.10;5.20;;;;;;;-5.87;84.06;100318.14;101417;1309;73991;-24
2022/12/18 11:33:44;;;;;;;10.40;5.90;;;;;;;-6.12;84.65;100329.32;101616;1307;61767;-23
2022/12/18 11:36:36;;;;;;;11.20;5.80;;;;;;;-6.23;85.41;100315.39;101441;1311;61759;-23
2022/12/18 11:39:18;;;;;;;9.00;4.40;;;;;;;-5.90;83.72;100329.11;101404;1312;74302;-23
2022/12/18 11:42:19;;;;;;;10.30;5.00;;;;;;;-5.84;83.70;100332.70;101476;1308;74828;-23
2022/12/18 11:44:56;;;;;;;10.20;4.90;;;;;;;-6.02;83.56;100339.20;101293;1310;74244;-23
2022/12/18 11:47:39;;;;;;;11.20;6.70;;;;;;;-6.23;83.44;100334.16;101352;1300;61259;-23
2022/12/18 11:50:12;;;;;;;11.30;5.40;;;;;;;-6.43;84.31;100341.42;101703;1308;62054;-23
2022/12/18 11:52:40;;;;;;;7.90;4.40;;;;;;;-6.09;83.86;100343.36;101911;1295;73568;-23
2022/12/18 11:55:12;;;;;;;13.20;6.20;;;;;;;-5.76;82.67;100345.95;102252;1302;75706;-23
2022/12/18 11:57:51;;;;;;;9.70;5.80;;;;;;;-6.07;83.11;100349.98;101933;1305;74319;-23
2022/12/18 12:00:19;;;;;;;9.50;5.30;;;;;;;-6.04;83.66;100357.62;102101;1302;61008;-24
2022/12/18 12:03:04;;;;;;;8.30;4.20;;;;;;;-6.19;84.19;100356.33;102250;1301;61697;-23
2022/12/18 12:05:41;;;;;;;13.50;6.50;;;;;;;-6.16;84.25;100363.79;102408;1299;74422;-24
2022/12/18 12:08:24;;;;;;;11.70;6.70;;;;;;;-5.78;83.49;100367.59;102412;1299;75806;-25
2022/12/18 12:10:57;;;;;;;12.80;5.80;;;;;;;-5.92;82.52;100365.82;102372;1299;74272;-25
2022/12/18 12:14:02;;;;;;;15.90;6.70;;;;;;;-6.17;82.47;100359.90;102366;1298;61076;-24
2022/12/18 12:16:36;;;;;;;12.90;6.40;;;;;;;-6.33;83.30;100382.23;102369;1301;61738;-24
2022/12/18 12:19:02;;;;;;;;;;;;;;;-6.40;83.72;100381.49;102376;1302;74570;-25
2022/12/18 12:21:40;;;;;;;14.90;6.90;;;;;;;-6.58;83.74;100380.83;102308;1299;74059;-24
2022/12/18 12:24:32;;;;;;;15.00;8.00;;;;;;;-6.38;82.59;100383.71;102341;1299;73467;-24
2022/12/18 12:27:05;;;;;;;14.10;7.30;;;;;;;-6.25;82.62;100401.23;102358;1297;61115;-24
2022/12/18 12:29:59;;;;;;;12.50;6.60;;;;;;;-6.48;82.89;100400.36;102364;1299;62003;-25
2022/12/18 12:32:45;;;;;;;15.20;7.60;;;;;;;-6.63;83.34;100398.34;102407;1299;74614;-24
2022/12/18 12:35:29;;;;;;;15.90;7.60;;;;;;;-6.74;84.10;100413.77;102361;1299;74499;-24
2022/12/18 12:37:56;;;;;;;14.40;6.60;;;;;;;-6.40;83.60;100420.72;102434;1298;74732;-25
2022/12/18 12:40:27;;;;;;;13.90;6.30;;;;;;;-6.13;82.43;100422.48;102341;1297;61185;-24
2022/12/18 12:43:37;;;;;;;14.20;6.60;;;;;;;-6.13;82.13;100436.35;102338;1297;61748;-24
2022/12/18 12:46:10;;;;;;;13.50;6.50;;;;;;;-6.27;82.82;100449.41;102365;1302;74503;-25
2022/12/18 12:48:48;;;;;;;15.30;7.20;;;;;;;-6.33;82.86;100451.04;102196;1294;73844;-25
2022/12/18 12:51:29;;;;;;;13.40;5.40;;;;;;;-6.60;84.42;100457.00;102308;1297;74248;-24
2022/12/18 12:53:57;;;;;;;23.00;7.80;;;;;;;-6.26;83.03;100450.10;102325;1291;61123;-25
2022/12/18 12:56:29;;;;;;;16.30;8.30;;;;;;;-6.08;81.06;100457.18;102242;1300;61681;-25
2022/12/18 12:59:17;;;;;;;15.10;7.40;;;;;;;-6.03;80.40;100470.25;102374;1300;73200;-24
2022/12/18 13:01:52;;;;;;;13.80;7.10;;;;;;;-6.17;80.27;100477.23;102208;1302;75821;-24
2022/12/18 13:04:43;;;;;;;16.70;8.10;;;;;;;-6.51;81.35;100483.62;102094;1301;74250;-24
2022/12/18 13:07:27;;;;;;;18.10;7.60;;;;;;;-6.88;82.11;100483.86;102029;1299;61845;-25
2022/12/18 13:10:22;;;;;;;18.00;9.70;;;;;;;-6.95;82.95;100481.75;102341;1302;61791;-24
2022/12/18 13:13:02;;;;;;;13.30;6.20;;;;;;;-6.63;80.78;100470.14;102391;1304;73689;-25
2022/12/18 13:15:37;;;;;;;15.20;7.50;;;;;;;-6.39;79.58;100488.50;102274;1299;75771;-24
2022/12/18 13:18:09;;;;;;;14.50;7.80;;;;;;;-6.79;80.21;100490.22;102347;1302;74243;-25
2022/12/18 13:20:41;;;;;;;21.30;9.40;;;;;;;-7.01;80.77;100498.88;102361;1299;61160;-25
2022/12/18 13:23:25;;;;;;;14.30;7.50;;;;;;;-7.19;82.12;100497.46;102153;1302;61854;-24
2022/12/18 13:26:16;;;;;;;14.90;8.30;;;;;;;-7.33;82.51;100502.81;102301;1299;73689;-25
2022/12/18 13:28:46;;;;;;;18.00;7.40;;;;;;;-6.96;82.23;100518.37;102282;1297;75831;-24
2022/12/18 13:31:14;;;;;;;15.60;7.30;;;;;;;-6.72;80.89;100529.67;102400;1299;74229;-25
2022/12/18 13:33:43;;;;;;;17.80;8.90;;;;;;;-6.79;80.84;100525.02;102190;1302;61120;-24
2022/12/18 13:36:32;;;;;;;20.70;8.40;;;;;;;-7.00;81.35;100529.80;102313;1294;61662;-24
2022/12/18 13:39:11;;;;;;;19.50;9.00;;;;;;;-7.24;81.95;100522.86;102398;1299;74567;-25
2022/12/18 13:41:39;;;;;;;18.90;9.70;;;;;;;-7.40;82.74;100537.30;102379;1299;75954;-24
2022/12/18 13:44:12;;;;;;;20.40;9.50;;;;;;;-7.28;82.95;100538.86;102371;1299;74048;-24
2022/12/18 13:46:45;;;;;;;14.90;7.40;;;;;;;-7.27;82.41;100538.02;102388;1292;61068;-25
2022/12/18 13:49:13;;;;;;;15.00;7.10;;;;;;;-7.22;81.60;100545.17;102362;1297;61853;-24
2022/12/18 13:51:48;;;;;;;15.90;6.70;;;;;;;-7.34;81.54;100542.98;102319;1299;74417;-25
2022/12/18 16:46:16;;;;;;;23.50;10.90;;;;;;;-8.98;90.84;100821.37;99568;1318;615449;-25
2022/12/18 16:48:43;;;;;;;15.60;7.40;;;;;;;-8.26;88.87;100813.00;101366;1312;61167;-25
2022/12/18 16:51:10;;;;;;;22.00;10.10;;;;;;;-7.70;85.15;100807.68;101313;1307;61838;-25
2022/12/18 16:53:38;;;;;;;13.80;6.40;;;;;;;-7.66;83.28;100822.79;101410;1312;73690;-25
2022/12/18 16:56:06;;;;;;;13.00;6.90;;;;;;;-7.85;83.00;100817.66;101418;1312;75924;-25
2022/12/18 16:58:34;;;;;;;14.40;6.90;;;;;;;-8.04;83.05;100814.70;100534;1301;1253693;-26
2022/12/18 17:01:07;;;;;;;17.50;6.90;;;;;;;-8.13;84.16;100821.25;101643;1308;61894;-25
2022/12/18 17:03:34;;;;;;;12.50;6.30;;;;;;;-8.01;84.90;100818.30;101463;1309;61799;-25
2022/12/18 17:06:03;;;;;;;15.20;6.50;;;;;;;-7.69;83.63;100815.81;101681;1307;73962;-25
2022/12/18 17:08:31;;;;;;;13.90;7.80;;;;;;;-7.63;81.50;100825.55;101368;1309;75663;-25
2022/12/18 17:11:06;;;;;;;10.10;4.80;;;;;;;-7.69;81.64;100832.17;101630;1308;74116;-25
2022/12/18 17:13:33;;;;;;;13.00;6.20;;;;;;;-7.77;82.11;100838.06;101375;1311;61161;-25
2022/12/18 17:16:07;;;;;;;13.80;6.10;;;;;;;-8.14;83.35;100839.24;101640;1307;61134;-25
2022/12/18 17:18:34;;;;;;;13.40;6.40;;;;;;;-8.20;83.94;100848.89;101454;1304;74600;-25
2022/12/18 17:21:02;;;;;;;14.80;7.90;;;;;;;-7.91;83.29;100863.73;101680;1309;75780;-25
2022/12/18 17:23:32;;;;;;;13.40;7.50;;;;;;;-7.69;82.32;100849.70;101638;1305;74270;-25
2022/12/18 17:25:59;;;;;;;15.30;7.40;;;;;;;-7.83;82.25;100856.31;101651;1308;61056;-25
2022/12/18 17:28:26;;;;;;;18.20;8.00;;;;;;;-8.02;83.44;100869.54;101453;1311;61832;-26
2022/12/18 17:30:54;;;;;;;11.70;6.20;;;;;;;-8.18;84.07;100874.21;102162;1302;74567;-25
2022/12/18 17:33:22;;;;;;;14.90;7.40;;;;;;;-8.25;84.39;100875.73;102122;1305;75854;-25